createdAt,value
2024-01-10T00:00:19.301Z,17.80
2024-01-10T00:00:25.468Z,18.50
2024-01-10T00:00:30.836Z,18.90
2024-01-10T00:00:32.659Z,18.70
2024-01-10T00:00:39.292Z,18.60
2024-01-10T00:00:44.871Z,18.70
2024-01-10T00:01:19.462Z,19.30
2024-01-10T00:01:25.661Z,19.20
2024-01-10T00:01:30.901Z,18.40
2024-01-10T00:01:32.749Z,18.40
2024-01-10T00:01:39.259Z,18.60
2024-01-10T00:01:44.964Z,18.10
2024-01-10T00:02:19.625Z,18.20
2024-01-10T00:02:25.878Z,18.20
2024-01-10T00:02:31.021Z,18.20
2024-01-10T00:02:32.867Z,18.30
2024-01-10T00:02:39.429Z,18.30
2024-01-10T00:02:44.996Z,18.50
2024-01-10T00:03:19.528Z,18.20
2024-01-10T00:03:25.766Z,18.40
2024-01-10T00:03:31.196Z,18.50
2024-01-10T00:03:32.820Z,18.50
2024-01-10T00:03:39.477Z,18.20
2024-01-10T00:03:45.150Z,18.00
2024-01-10T00:04:19.827Z,18.50
2024-01-10T00:04:25.834Z,19.00
2024-01-10T00:04:31.194Z,19.00
2024-01-10T00:04:32.825Z,18.80
2024-01-10T00:04:39.561Z,18.50
2024-01-10T00:04:45.156Z,18.60
2024-01-10T00:05:20.864Z,17.70
2024-01-10T00:05:25.975Z,17.90
2024-01-10T00:05:31.255Z,17.80
2024-01-10T00:05:32.935Z,17.40
2024-01-10T00:05:39.678Z,17.60
2024-01-10T00:05:45.616Z,17.30
2024-01-10T00:06:19.972Z,17.00
2024-01-10T00:06:26.054Z,17.20
2024-01-10T00:06:31.441Z,17.00
2024-01-10T00:06:33.006Z,17.00
2024-01-10T00:06:39.848Z,16.80
2024-01-10T00:06:45.221Z,17.00
2024-01-10T00:07:19.997Z,17.30
2024-01-10T00:07:26.033Z,16.80
2024-01-10T00:07:31.582Z,16.70
2024-01-10T00:07:33.305Z,17.10
2024-01-10T00:07:40.263Z,17.40
2024-01-10T00:07:45.270Z,17.80
2024-01-10T00:08:20.187Z,17.50
2024-01-10T00:08:26.119Z,17.40
2024-01-10T00:08:31.564Z,17.50
2024-01-10T00:08:33.252Z,17.40
2024-01-10T00:08:40.326Z,18.20
2024-01-10T00:08:45.269Z,19.00
2024-01-10T00:09:20.230Z,18.10
2024-01-10T00:09:26.168Z,18.40
2024-01-10T00:09:31.679Z,17.80
2024-01-10T00:09:33.286Z,17.40
2024-01-10T00:09:40.345Z,17.40
2024-01-10T00:09:45.398Z,17.80
2024-01-10T00:10:20.247Z,17.80
2024-01-10T00:10:26.330Z,18.00
2024-01-10T00:10:31.915Z,18.30
2024-01-10T00:10:33.391Z,18.10
2024-01-10T00:10:40.397Z,17.80
2024-01-10T00:10:45.565Z,17.60
2024-01-10T00:11:20.405Z,17.70
2024-01-10T00:11:27.244Z,17.50
2024-01-10T00:11:35.211Z,17.10
2024-01-10T00:11:36.980Z,17.20
2024-01-10T00:11:40.372Z,17.10
2024-01-10T00:11:45.603Z,17.20
2024-01-10T00:12:20.424Z,17.30
2024-01-10T00:12:27.341Z,17.60
2024-01-10T00:12:31.949Z,18.00
2024-01-10T00:12:37.195Z,17.90
2024-01-10T00:12:40.458Z,17.70
2024-01-10T00:12:45.768Z,17.70
2024-01-10T00:13:20.431Z,17.90
2024-01-10T00:13:27.394Z,17.20
2024-01-10T00:13:31.968Z,17.40
2024-01-10T00:13:37.158Z,17.00
2024-01-10T00:13:40.545Z,17.20
2024-01-10T00:13:45.790Z,17.50
2024-01-10T00:14:20.557Z,18.20
2024-01-10T00:14:27.580Z,18.40
2024-01-10T00:14:31.976Z,18.30
2024-01-10T00:14:37.172Z,18.40
2024-01-10T00:14:40.604Z,18.30
2024-01-10T00:14:45.790Z,18.30
2024-01-10T00:15:20.578Z,18.90
2024-01-10T00:15:27.613Z,18.80
2024-01-10T00:15:32.081Z,18.60
2024-01-10T00:15:37.261Z,18.20
2024-01-10T00:15:40.728Z,18.20
2024-01-10T00:15:45.888Z,18.10
2024-01-10T00:16:20.662Z,17.00
2024-01-10T00:16:27.629Z,17.10
2024-01-10T00:16:32.170Z,17.50
2024-01-10T00:16:37.401Z,17.70
2024-01-10T00:16:40.880Z,17.40
2024-01-10T00:16:45.991Z,17.40
2024-01-10T00:17:20.725Z,17.90
2024-01-10T00:17:27.705Z,17.70
2024-01-10T00:17:32.286Z,17.70
2024-01-10T00:17:37.409Z,17.80
2024-01-10T00:17:40.922Z,18.10
2024-01-10T00:17:46.095Z,18.10
2024-01-10T00:18:20.898Z,17.90
2024-01-10T00:18:27.908Z,18.30
2024-01-10T00:18:32.407Z,18.00
2024-01-10T00:18:37.493Z,17.90
2024-01-10T00:18:41.006Z,17.70
2024-01-10T00:18:46.111Z,17.80
2024-01-10T00:19:20.874Z,17.30
2024-01-10T00:19:27.835Z,17.30
2024-01-10T00:19:32.461Z,17.50
2024-01-10T00:19:37.477Z,17.30
2024-01-10T00:19:41.055Z,17.40
2024-01-10T00:19:46.078Z,18.00
2024-01-10T00:20:21.025Z,17.70
2024-01-10T00:20:28.030Z,17.40
2024-01-10T00:20:32.514Z,17.50
2024-01-10T00:20:37.507Z,17.10
2024-01-10T00:20:41.045Z,16.80
2024-01-10T00:20:46.140Z,16.40
2024-01-10T00:21:21.047Z,16.30
2024-01-10T00:21:28.014Z,16.20
2024-01-10T00:21:32.588Z,16.80
2024-01-10T00:21:37.510Z,16.90
2024-01-10T00:21:41.049Z,17.50
2024-01-10T00:21:46.249Z,17.80
2024-01-10T00:22:21.748Z,17.50
2024-01-10T00:22:28.088Z,17.30
2024-01-10T00:22:32.695Z,16.80
2024-01-10T00:22:37.701Z,17.00
2024-01-10T00:22:41.204Z,17.30
2024-01-10T00:22:46.401Z,17.70
2024-01-10T00:23:21.795Z,17.40
2024-01-10T00:23:28.095Z,16.90
2024-01-10T00:23:32.661Z,16.70
2024-01-10T00:23:37.749Z,17.10
2024-01-10T00:23:41.147Z,16.60
2024-01-10T00:23:46.418Z,16.90
2024-01-10T00:24:21.772Z,17.20
2024-01-10T00:24:28.119Z,17.60
2024-01-10T00:24:32.729Z,17.40
2024-01-10T00:24:37.827Z,17.60
2024-01-10T00:24:41.176Z,17.90
2024-01-10T00:24:46.516Z,18.10
2024-01-10T00:25:21.845Z,16.20
2024-01-10T00:25:28.244Z,16.50
2024-01-10T00:25:32.879Z,16.70
2024-01-10T00:25:37.913Z,16.90
2024-01-10T00:25:41.315Z,16.90
2024-01-10T00:25:46.624Z,17.10
2024-01-10T00:26:21.914Z,16.90
2024-01-10T00:26:28.273Z,16.70
2024-01-10T00:26:32.885Z,17.30
2024-01-10T00:26:37.976Z,17.40
2024-01-10T00:26:41.341Z,17.40
2024-01-10T00:26:46.619Z,17.70
2024-01-10T00:27:22.043Z,16.90
2024-01-10T00:27:28.341Z,17.10
2024-01-10T00:27:32.956Z,17.10
2024-01-10T00:27:37.982Z,17.20
2024-01-10T00:27:41.407Z,17.20
2024-01-10T00:27:46.722Z,17.10
2024-01-10T00:28:22.152Z,16.60
2024-01-10T00:28:28.345Z,16.30
2024-01-10T00:28:33.074Z,16.40
2024-01-10T00:28:38.107Z,16.30
2024-01-10T00:28:41.469Z,16.60
2024-01-10T00:28:46.820Z,17.00
2024-01-10T00:29:22.233Z,17.20
2024-01-10T00:29:28.668Z,17.00
2024-01-10T00:29:33.088Z,17.30
2024-01-10T00:29:38.080Z,17.40
2024-01-10T00:29:41.480Z,17.30
2024-01-10T00:29:46.928Z,16.80
2024-01-10T00:30:22.389Z,16.90
2024-01-10T00:30:28.626Z,16.70
2024-01-10T00:30:33.180Z,16.60
2024-01-10T00:30:38.113Z,16.60
2024-01-10T00:30:41.683Z,16.10
2024-01-10T00:30:47.099Z,16.90
2024-01-10T00:31:22.487Z,16.40
2024-01-10T00:31:28.688Z,16.50
2024-01-10T00:31:33.329Z,16.50
2024-01-10T00:31:38.391Z,17.10
2024-01-10T00:31:41.742Z,16.70
2024-01-10T00:31:47.136Z,16.30
2024-01-10T00:32:22.735Z,16.00
2024-01-10T00:32:28.941Z,16.30
2024-01-10T00:32:33.391Z,16.40
2024-01-10T00:32:38.396Z,16.20
2024-01-10T00:32:41.878Z,16.20
2024-01-10T00:32:48.003Z,16.70
2024-01-10T00:33:22.764Z,17.20
2024-01-10T00:33:28.899Z,17.10
2024-01-10T00:33:33.409Z,17.10
2024-01-10T00:33:38.521Z,16.50
2024-01-10T00:33:42.082Z,16.50
2024-01-10T00:33:47.884Z,16.70
2024-01-10T00:34:22.803Z,17.00
2024-01-10T00:34:28.849Z,17.10
2024-01-10T00:34:33.386Z,16.50
2024-01-10T00:34:38.549Z,16.40
2024-01-10T00:34:42.025Z,16.20
2024-01-10T00:34:47.863Z,16.60
2024-01-10T00:35:22.933Z,16.10
2024-01-10T00:35:28.910Z,16.40
2024-01-10T00:35:33.452Z,16.30
2024-01-10T00:35:38.531Z,16.40
2024-01-10T00:35:42.105Z,16.00
2024-01-10T00:35:47.894Z,16.50
2024-01-10T00:36:22.930Z,17.20
2024-01-10T00:36:28.974Z,17.40
2024-01-10T00:36:33.528Z,17.10
2024-01-10T00:36:38.633Z,16.80
2024-01-10T00:36:42.131Z,16.80
2024-01-10T00:36:48.743Z,16.50
2024-01-10T00:37:22.984Z,17.00
2024-01-10T00:37:29.071Z,16.50
2024-01-10T00:37:33.633Z,16.60
2024-01-10T00:37:38.714Z,16.50
2024-01-10T00:37:42.243Z,16.80
2024-01-10T00:37:48.915Z,16.40
2024-01-10T00:38:23.094Z,16.50
2024-01-10T00:38:29.146Z,16.00
2024-01-10T00:38:33.655Z,15.60
2024-01-10T00:38:38.730Z,15.70
2024-01-10T00:38:42.278Z,15.60
2024-01-10T00:38:48.925Z,15.50
2024-01-10T00:39:23.114Z,16.60
2024-01-10T00:39:29.170Z,16.20
2024-01-10T00:39:33.743Z,16.80
2024-01-10T00:39:38.743Z,17.00
2024-01-10T00:39:42.319Z,16.60
2024-01-10T00:39:48.952Z,16.80
2024-01-10T00:40:23.137Z,15.90
2024-01-10T00:40:29.222Z,16.50
2024-01-10T00:40:33.923Z,16.40
2024-01-10T00:40:38.950Z,16.50
2024-01-10T00:40:42.486Z,16.20
2024-01-10T00:40:49.163Z,15.90
2024-01-10T00:41:23.289Z,17.30
2024-01-10T00:41:29.299Z,17.20
2024-01-10T00:41:33.952Z,16.80
2024-01-10T00:41:38.981Z,16.60
2024-01-10T00:41:42.584Z,16.70
2024-01-10T00:41:49.269Z,16.60
2024-01-10T00:42:23.323Z,15.30
2024-01-10T00:42:29.419Z,15.30
2024-01-10T00:42:34.037Z,15.10
2024-01-10T00:42:38.986Z,15.30
2024-01-10T00:42:42.612Z,15.20
2024-01-10T00:42:49.309Z,15.70
2024-01-10T00:43:23.355Z,15.70
2024-01-10T00:43:29.507Z,16.10
2024-01-10T00:43:34.171Z,16.20
2024-01-10T00:43:39.116Z,16.40
2024-01-10T00:43:42.667Z,16.40
2024-01-10T00:43:49.527Z,16.20
2024-01-10T00:44:23.498Z,16.20
2024-01-10T00:44:29.568Z,16.20
2024-01-10T00:44:34.235Z,15.40
2024-01-10T00:44:39.167Z,15.70
2024-01-10T00:44:42.762Z,16.00
2024-01-10T00:44:49.494Z,16.10
2024-01-10T00:45:23.667Z,16.10
2024-01-10T00:45:29.633Z,16.10
2024-01-10T00:45:34.351Z,16.00
2024-01-10T00:45:39.174Z,15.90
2024-01-10T00:45:42.893Z,15.90
2024-01-10T00:45:49.506Z,15.70
2024-01-10T00:46:23.729Z,16.20
2024-01-10T00:46:29.715Z,16.30
2024-01-10T00:46:34.510Z,16.40
2024-01-10T00:46:39.313Z,16.10
2024-01-10T00:46:42.998Z,16.40
2024-01-10T00:46:49.608Z,16.50
2024-01-10T00:47:23.820Z,16.30
2024-01-10T00:47:30.004Z,16.00
2024-01-10T00:47:34.548Z,15.60
2024-01-10T00:47:39.529Z,15.90
2024-01-10T00:47:44.535Z,16.00
2024-01-10T00:47:49.728Z,15.20
2024-01-10T00:48:23.847Z,16.00
2024-01-10T00:48:29.917Z,15.80
2024-01-10T00:48:34.679Z,15.50
2024-01-10T00:48:39.569Z,15.80
2024-01-10T00:48:44.660Z,16.40
2024-01-10T00:48:49.693Z,15.70
2024-01-10T00:49:23.844Z,16.50
2024-01-10T00:49:30.005Z,15.80
2024-01-10T00:49:34.839Z,15.80
2024-01-10T00:49:39.671Z,15.60
2024-01-10T00:49:44.777Z,15.40
2024-01-10T00:49:49.731Z,15.00
2024-01-10T00:50:23.952Z,16.80
2024-01-10T00:50:30.105Z,16.60
2024-01-10T00:50:34.795Z,16.50
2024-01-10T00:50:39.799Z,16.00
2024-01-10T00:50:44.758Z,15.90
2024-01-10T00:50:49.806Z,16.10
2024-01-10T00:51:24.066Z,16.40
2024-01-10T00:51:30.072Z,16.00
2024-01-10T00:51:34.863Z,16.00
2024-01-10T00:51:39.932Z,15.70
2024-01-10T00:51:44.823Z,15.60
2024-01-10T00:51:49.905Z,15.80
2024-01-10T00:52:24.246Z,16.00
2024-01-10T00:52:30.738Z,15.60
2024-01-10T00:52:35.015Z,16.00
2024-01-10T00:52:39.973Z,16.00
2024-01-10T00:52:44.912Z,16.10
2024-01-10T00:52:50.064Z,16.20
2024-01-10T00:53:24.369Z,16.60
2024-01-10T00:53:30.871Z,16.50
2024-01-10T00:53:35.064Z,16.50
2024-01-10T00:53:39.985Z,16.30
2024-01-10T00:53:44.914Z,16.40
2024-01-10T00:53:50.170Z,16.70
2024-01-10T00:54:24.486Z,15.80
2024-01-10T00:54:30.875Z,15.80
2024-01-10T00:54:35.182Z,15.80
2024-01-10T00:54:40.032Z,15.70
2024-01-10T00:54:44.912Z,15.80
2024-01-10T00:54:50.299Z,15.50
2024-01-10T00:55:24.502Z,16.00
2024-01-10T00:55:30.987Z,16.50
2024-01-10T00:55:35.309Z,16.30
2024-01-10T00:55:40.180Z,16.50
2024-01-10T00:55:44.972Z,16.60
2024-01-10T00:55:50.394Z,16.50
2024-01-10T00:56:24.662Z,17.20
2024-01-10T00:56:31.756Z,16.90
2024-01-10T00:56:35.382Z,16.40
2024-01-10T00:56:40.137Z,16.00
2024-01-10T00:56:45.021Z,15.50
2024-01-10T00:56:50.362Z,15.80
2024-01-10T00:57:24.693Z,16.40
2024-01-10T00:57:31.866Z,16.70
2024-01-10T00:57:35.537Z,16.70
2024-01-10T00:57:40.248Z,16.70
2024-01-10T00:57:45.080Z,16.60
2024-01-10T00:57:50.362Z,16.60
2024-01-10T00:58:24.723Z,16.70
2024-01-10T00:58:31.906Z,15.60
2024-01-10T00:58:35.648Z,16.10
2024-01-10T00:58:40.367Z,15.60
2024-01-10T00:58:45.173Z,15.80
2024-01-10T00:58:50.432Z,15.80
2024-01-10T00:59:24.827Z,16.00
2024-01-10T00:59:31.952Z,16.40
2024-01-10T00:59:35.752Z,16.10
2024-01-10T00:59:40.474Z,16.10
2024-01-10T00:59:45.243Z,15.90
2024-01-10T00:59:50.523Z,15.60
2024-01-10T01:00:24.868Z,16.40
2024-01-10T01:00:32.082Z,16.60
2024-01-10T01:00:35.877Z,16.20
2024-01-10T01:00:40.529Z,15.70
2024-01-10T01:00:45.326Z,15.10
2024-01-10T01:00:50.719Z,15.70
2024-01-10T01:01:24.947Z,16.00
2024-01-10T01:01:32.156Z,15.70
2024-01-10T01:01:36.011Z,15.60
2024-01-10T01:01:40.632Z,15.70
2024-01-10T01:01:45.351Z,16.00
2024-01-10T01:01:50.848Z,16.30
2024-01-10T01:02:25.159Z,16.20
2024-01-10T01:02:32.254Z,16.40
2024-01-10T01:02:36.038Z,16.10
2024-01-10T01:02:40.764Z,16.10
2024-01-10T01:02:45.384Z,16.00
2024-01-10T01:02:50.859Z,15.50
2024-01-10T01:03:25.132Z,17.00
2024-01-10T01:03:32.224Z,17.50
2024-01-10T01:03:36.051Z,17.30
2024-01-10T01:03:40.818Z,17.10
2024-01-10T01:03:45.483Z,17.10
2024-01-10T01:03:51.014Z,17.00
2024-01-10T01:04:25.157Z,15.80
2024-01-10T01:04:32.260Z,15.90
2024-01-10T01:04:36.200Z,15.80
2024-01-10T01:04:40.917Z,15.60
2024-01-10T01:04:45.625Z,15.10
2024-01-10T01:04:50.973Z,15.00
2024-01-10T01:05:25.299Z,15.60
2024-01-10T01:05:32.440Z,15.50
2024-01-10T01:05:36.191Z,15.40
2024-01-10T01:05:41.002Z,15.50
2024-01-10T01:05:45.550Z,15.00
2024-01-10T01:05:51.180Z,15.20
2024-01-10T01:06:25.406Z,16.40
2024-01-10T01:06:32.520Z,16.60
2024-01-10T01:06:36.245Z,16.60
2024-01-10T01:06:41.007Z,16.70
2024-01-10T01:06:45.512Z,16.60
2024-01-10T01:06:51.149Z,16.40
2024-01-10T01:07:25.470Z,16.60
2024-01-10T01:07:32.777Z,16.20
2024-01-10T01:07:36.360Z,16.70
2024-01-10T01:07:41.177Z,17.00
2024-01-10T01:07:46.268Z,17.00
2024-01-10T01:07:51.254Z,16.70
2024-01-10T01:08:25.588Z,16.30
2024-01-10T01:08:32.715Z,16.40
2024-01-10T01:08:36.365Z,16.40
2024-01-10T01:08:41.263Z,16.40
2024-01-10T01:08:45.699Z,16.30
2024-01-10T01:08:51.325Z,16.60
2024-01-10T01:09:25.612Z,15.90
2024-01-10T01:09:32.799Z,16.00
2024-01-10T01:09:36.457Z,16.20
2024-01-10T01:09:41.401Z,15.80
2024-01-10T01:09:45.723Z,16.30
2024-01-10T01:09:51.461Z,17.10
2024-01-10T01:10:25.698Z,14.80
2024-01-10T01:10:35.575Z,15.20
2024-01-10T01:10:38.251Z,15.10
2024-01-10T01:10:41.456Z,15.40
2024-01-10T01:10:45.889Z,15.70
2024-01-10T01:10:51.540Z,16.10
2024-01-10T01:11:25.908Z,15.60
2024-01-10T01:11:32.934Z,15.40
2024-01-10T01:11:37.748Z,16.10
2024-01-10T01:11:41.528Z,16.50
2024-01-10T01:11:45.899Z,16.00
2024-01-10T01:11:51.497Z,16.50
2024-01-10T01:12:25.935Z,16.30
2024-01-10T01:12:33.012Z,15.90
2024-01-10T01:12:37.851Z,15.70
2024-01-10T01:12:41.574Z,16.20
2024-01-10T01:12:46.005Z,16.30
2024-01-10T01:12:51.585Z,16.40
2024-01-10T01:13:25.966Z,16.70
2024-01-10T01:13:33.234Z,16.90
2024-01-10T01:13:38.223Z,17.50
2024-01-10T01:13:41.645Z,17.10
2024-01-10T01:13:46.127Z,16.80
2024-01-10T01:13:51.634Z,16.70
2024-01-10T01:14:26.133Z,17.10
2024-01-10T01:14:33.169Z,17.40
2024-01-10T01:14:38.191Z,16.90
2024-01-10T01:14:41.662Z,17.00
2024-01-10T01:14:46.141Z,16.70
2024-01-10T01:14:51.746Z,16.80
2024-01-10T01:15:26.744Z,15.90
2024-01-10T01:15:33.212Z,16.00
2024-01-10T01:15:38.210Z,16.00
2024-01-10T01:15:41.696Z,16.10
2024-01-10T01:15:46.261Z,16.30
2024-01-10T01:15:51.878Z,16.20
2024-01-10T01:16:26.806Z,16.00
2024-01-10T01:16:33.289Z,16.30
2024-01-10T01:16:38.282Z,16.20
2024-01-10T01:16:41.812Z,16.30
2024-01-10T01:16:46.521Z,16.30
2024-01-10T01:16:52.093Z,16.50
2024-01-10T01:17:26.888Z,16.70
2024-01-10T01:17:33.395Z,16.30
2024-01-10T01:17:38.349Z,16.10
2024-01-10T01:17:41.852Z,16.20
2024-01-10T01:17:46.694Z,16.70
2024-01-10T01:17:52.040Z,16.90
2024-01-10T01:18:27.051Z,16.10
2024-01-10T01:18:33.511Z,16.10
2024-01-10T01:18:38.470Z,15.60
2024-01-10T01:18:41.883Z,15.80
2024-01-10T01:18:46.929Z,15.70
2024-01-10T01:18:52.199Z,15.80
2024-01-10T01:19:26.972Z,16.10
2024-01-10T01:19:33.677Z,16.20
2024-01-10T01:19:38.563Z,15.80
2024-01-10T01:19:41.972Z,16.00
2024-01-10T01:19:46.920Z,16.40
2024-01-10T01:19:53.276Z,16.70
2024-01-10T01:20:29.749Z,15.90
2024-01-10T01:20:33.777Z,15.80
2024-01-10T01:20:38.727Z,16.10
2024-01-10T01:20:42.011Z,16.20
2024-01-10T01:20:46.993Z,16.10
2024-01-10T01:20:53.263Z,16.00
2024-01-10T01:21:27.111Z,16.70
2024-01-10T01:21:33.744Z,16.60
2024-01-10T01:21:38.784Z,16.80
2024-01-10T01:21:42.069Z,16.60
2024-01-10T01:21:47.027Z,16.50
2024-01-10T01:21:53.293Z,16.50
2024-01-10T01:22:27.119Z,16.10
2024-01-10T01:22:33.890Z,15.90
2024-01-10T01:22:38.913Z,16.30
2024-01-10T01:22:42.148Z,16.20
2024-01-10T01:22:47.074Z,16.90
2024-01-10T01:22:53.407Z,17.40
2024-01-10T01:23:35.994Z,17.00
2024-01-10T01:23:41.289Z,16.30
2024-01-10T01:23:42.312Z,16.20
2024-01-10T01:23:43.340Z,16.20
2024-01-10T01:23:47.187Z,16.00
2024-01-10T01:23:53.471Z,15.60
2024-01-10T01:24:27.171Z,15.60
2024-01-10T01:24:34.020Z,15.80
2024-01-10T01:24:39.145Z,16.40
2024-01-10T01:24:43.321Z,16.50
2024-01-10T01:24:47.098Z,16.60
2024-01-10T01:24:53.473Z,16.30
2024-01-10T01:25:27.290Z,17.60
2024-01-10T01:25:34.172Z,17.80
2024-01-10T01:25:39.302Z,18.00
2024-01-10T01:25:43.453Z,17.90
2024-01-10T01:25:47.149Z,17.90
2024-01-10T01:25:53.655Z,17.60
2024-01-10T01:26:27.283Z,16.90
2024-01-10T01:26:34.245Z,16.90
2024-01-10T01:26:39.300Z,16.90
2024-01-10T01:26:43.546Z,16.60
2024-01-10T01:26:47.278Z,16.30
2024-01-10T01:26:53.616Z,16.60
2024-01-10T01:27:27.301Z,16.60
2024-01-10T01:27:34.310Z,16.40
2024-01-10T01:27:39.392Z,16.50
2024-01-10T01:27:43.605Z,17.00
2024-01-10T01:27:47.312Z,16.60
2024-01-10T01:27:53.669Z,17.10
2024-01-10T01:28:27.335Z,18.00
2024-01-10T01:28:34.394Z,17.50
2024-01-10T01:28:39.540Z,17.90
2024-01-10T01:28:43.713Z,17.50
2024-01-10T01:28:47.452Z,17.60
2024-01-10T01:28:53.720Z,16.80
2024-01-10T01:29:27.404Z,17.10
2024-01-10T01:29:34.409Z,17.20
2024-01-10T01:29:39.393Z,17.40
2024-01-10T01:29:43.859Z,17.70
2024-01-10T01:29:47.439Z,18.00
2024-01-10T01:29:53.812Z,17.50
2024-01-10T01:30:27.545Z,17.90
2024-01-10T01:30:34.490Z,18.20
2024-01-10T01:30:39.603Z,17.80
2024-01-10T01:30:43.930Z,18.10
2024-01-10T01:30:47.569Z,18.10
2024-01-10T01:30:53.843Z,17.60
2024-01-10T01:31:27.649Z,18.00
2024-01-10T01:31:34.542Z,17.80
2024-01-10T01:31:39.677Z,17.20
2024-01-10T01:31:43.999Z,17.90
2024-01-10T01:31:47.630Z,17.90
2024-01-10T01:31:53.874Z,17.80
2024-01-10T01:32:28.011Z,16.60
2024-01-10T01:32:34.497Z,17.50
2024-01-10T01:32:39.616Z,17.20
2024-01-10T01:32:44.039Z,17.50
2024-01-10T01:32:47.651Z,17.90
2024-01-10T01:32:54.057Z,17.80
2024-01-10T01:33:28.081Z,17.50
2024-01-10T01:33:34.594Z,16.60
2024-01-10T01:33:39.780Z,16.80
2024-01-10T01:33:44.183Z,17.00
2024-01-10T01:33:47.741Z,16.40
2024-01-10T01:33:53.958Z,16.30
2024-01-10T01:34:28.084Z,16.70
2024-01-10T01:34:34.684Z,16.40
2024-01-10T01:34:39.807Z,16.30
2024-01-10T01:34:44.254Z,16.50
2024-01-10T01:34:47.865Z,16.70
2024-01-10T01:34:53.995Z,16.10
2024-01-10T01:35:28.179Z,16.10
2024-01-10T01:35:34.772Z,16.30
2024-01-10T01:35:39.862Z,16.40
2024-01-10T01:35:44.234Z,16.60
2024-01-10T01:35:47.858Z,16.80
2024-01-10T01:35:53.996Z,17.20
2024-01-10T01:36:28.246Z,16.50
2024-01-10T01:36:34.803Z,16.00
2024-01-10T01:36:39.908Z,15.90
2024-01-10T01:36:44.360Z,16.40
2024-01-10T01:36:47.924Z,16.90
2024-01-10T01:36:54.134Z,16.90
2024-01-10T01:37:28.253Z,16.60
2024-01-10T01:37:34.926Z,16.90
2024-01-10T01:37:40.037Z,17.00
2024-01-10T01:37:44.436Z,17.40
2024-01-10T01:37:48.061Z,17.10
2024-01-10T01:37:54.207Z,16.90
2024-01-10T01:38:28.282Z,17.50
2024-01-10T01:38:34.953Z,18.00
2024-01-10T01:38:40.234Z,17.90
2024-01-10T01:38:44.443Z,17.70
2024-01-10T01:38:48.111Z,17.70
2024-01-10T01:38:54.253Z,17.40
2024-01-10T01:39:28.320Z,16.90
2024-01-10T01:39:35.068Z,17.40
2024-01-10T01:39:40.390Z,17.60
2024-01-10T01:39:44.454Z,17.60
2024-01-10T01:39:48.211Z,17.90
2024-01-10T01:39:54.345Z,17.60
2024-01-10T01:40:28.372Z,17.40
2024-01-10T01:40:35.120Z,17.20
2024-01-10T01:40:40.460Z,17.20
2024-01-10T01:40:44.494Z,17.30
2024-01-10T01:40:48.217Z,17.00
2024-01-10T01:40:54.381Z,16.40
2024-01-10T01:41:28.470Z,17.00
2024-01-10T01:41:35.164Z,17.00
2024-01-10T01:41:40.517Z,16.90
2024-01-10T01:41:44.521Z,16.90
2024-01-10T01:41:48.267Z,17.20
2024-01-10T01:41:54.415Z,17.80
2024-01-10T01:42:28.485Z,17.30
2024-01-10T01:42:35.196Z,16.70
2024-01-10T01:42:40.639Z,16.60
2024-01-10T01:42:44.545Z,16.80
2024-01-10T01:42:48.325Z,17.10
2024-01-10T01:42:54.491Z,17.20
2024-01-10T01:43:28.489Z,17.70
2024-01-10T01:43:35.404Z,17.20
2024-01-10T01:43:40.691Z,16.80
2024-01-10T01:43:44.675Z,16.70
2024-01-10T01:43:48.491Z,16.50
2024-01-10T01:43:54.552Z,16.40
2024-01-10T01:44:28.590Z,17.70
2024-01-10T01:44:35.392Z,17.50
2024-01-10T01:44:40.775Z,17.50
2024-01-10T01:44:44.716Z,17.90
2024-01-10T01:44:48.571Z,17.50
2024-01-10T01:44:54.555Z,17.40
2024-01-10T01:45:28.723Z,17.80
2024-01-10T01:45:35.473Z,17.60
2024-01-10T01:45:40.809Z,17.30
2024-01-10T01:45:44.741Z,17.00
2024-01-10T01:45:48.691Z,17.30
2024-01-10T01:45:54.615Z,17.20
2024-01-10T01:46:28.744Z,16.80
2024-01-10T01:46:35.605Z,17.20
2024-01-10T01:46:40.983Z,17.10
2024-01-10T01:46:44.853Z,17.30
2024-01-10T01:46:48.822Z,17.40
2024-01-10T01:46:54.671Z,16.90
2024-01-10T01:47:28.806Z,17.70
2024-01-10T01:47:35.637Z,18.20
2024-01-10T01:47:41.054Z,17.80
2024-01-10T01:47:44.959Z,17.80
2024-01-10T01:47:48.821Z,17.60
2024-01-10T01:47:54.891Z,17.40
2024-01-10T01:48:29.236Z,17.70
2024-01-10T01:48:35.896Z,16.80
2024-01-10T01:48:41.090Z,16.80
2024-01-10T01:48:45.081Z,16.10
2024-01-10T01:48:49.057Z,16.00
2024-01-10T01:48:54.933Z,16.10
2024-01-10T01:49:29.017Z,17.10
2024-01-10T01:49:36.012Z,16.70
2024-01-10T01:49:41.214Z,16.80
2024-01-10T01:49:45.118Z,16.40
2024-01-10T01:49:49.235Z,16.30
2024-01-10T01:49:55.108Z,16.50
2024-01-10T01:50:28.984Z,16.80
2024-01-10T01:50:35.833Z,17.60
2024-01-10T01:50:41.222Z,17.90
2024-01-10T01:50:45.170Z,17.70
2024-01-10T01:50:50.234Z,17.70
2024-01-10T01:50:55.032Z,17.90
2024-01-10T01:51:29.024Z,16.80
2024-01-10T01:51:35.897Z,17.00
2024-01-10T01:51:41.065Z,16.80
2024-01-10T01:51:45.076Z,16.60
2024-01-10T01:51:50.228Z,16.70
2024-01-10T01:51:55.066Z,16.80
2024-01-10T01:52:29.062Z,18.60
2024-01-10T01:52:36.021Z,18.30
2024-01-10T01:52:41.132Z,18.10
2024-01-10T01:52:45.126Z,17.80
2024-01-10T01:52:50.320Z,17.30
2024-01-10T01:52:55.116Z,16.60
2024-01-10T01:53:29.116Z,17.30
2024-01-10T01:53:35.937Z,17.40
2024-01-10T01:53:41.231Z,17.40
2024-01-10T01:53:45.090Z,17.00
2024-01-10T01:53:50.426Z,17.50
2024-01-10T01:53:55.193Z,16.80
2024-01-10T01:54:29.195Z,17.20
2024-01-10T01:54:36.073Z,17.00
2024-01-10T01:54:41.328Z,17.60
2024-01-10T01:54:45.138Z,17.70
2024-01-10T01:54:50.515Z,18.00
2024-01-10T01:54:55.241Z,17.90
2024-01-10T01:55:29.293Z,16.10
2024-01-10T01:55:36.098Z,16.30
2024-01-10T01:55:41.357Z,16.90
2024-01-10T01:55:45.212Z,17.20
2024-01-10T01:55:50.643Z,17.40
2024-01-10T01:55:55.397Z,17.50
2024-01-10T01:56:29.423Z,17.20
2024-01-10T01:56:36.087Z,17.60
2024-01-10T01:56:41.470Z,17.20
2024-01-10T01:56:45.325Z,16.80
2024-01-10T01:56:50.631Z,16.70
2024-01-10T01:56:55.434Z,16.80
2024-01-10T01:57:29.511Z,17.20
2024-01-10T01:57:36.219Z,17.40
2024-01-10T01:57:41.494Z,17.20
2024-01-10T01:57:45.382Z,17.10
2024-01-10T01:57:50.748Z,16.80
2024-01-10T01:57:55.432Z,16.50
2024-01-10T01:58:29.538Z,17.00
2024-01-10T01:58:36.405Z,16.90
2024-01-10T01:58:41.657Z,17.00
2024-01-10T01:58:45.503Z,16.90
2024-01-10T01:58:50.916Z,16.90
2024-01-10T01:58:55.467Z,16.90
2024-01-10T01:59:29.686Z,17.50
2024-01-10T01:59:36.479Z,17.60
2024-01-10T01:59:41.741Z,18.10
2024-01-10T01:59:45.611Z,18.00
2024-01-10T01:59:50.943Z,18.20
2024-01-10T01:59:55.468Z,17.90
2024-01-10T02:00:29.747Z,18.10
2024-01-10T02:00:36.623Z,18.20
2024-01-10T02:00:41.870Z,18.00
2024-01-10T02:00:45.708Z,17.60
2024-01-10T02:00:50.985Z,17.80
2024-01-10T02:00:55.622Z,18.00
2024-01-10T02:01:29.751Z,17.30
2024-01-10T02:01:36.600Z,17.60
2024-01-10T02:01:41.952Z,18.00
2024-01-10T02:01:45.666Z,18.00
2024-01-10T02:01:50.983Z,18.10
2024-01-10T02:01:55.654Z,18.30
2024-01-10T02:02:30.004Z,17.20
2024-01-10T02:02:36.612Z,16.90
2024-01-10T02:02:42.046Z,17.00
2024-01-10T02:02:45.757Z,17.40
2024-01-10T02:02:51.034Z,17.50
2024-01-10T02:02:55.715Z,17.60
2024-01-10T02:03:29.983Z,17.90
2024-01-10T02:03:36.766Z,18.10
2024-01-10T02:03:42.266Z,17.80
2024-01-10T02:03:45.838Z,18.00
2024-01-10T02:03:51.207Z,18.20
2024-01-10T02:03:55.817Z,17.90
2024-01-10T02:04:29.937Z,17.70
2024-01-10T02:04:36.796Z,17.50
2024-01-10T02:04:42.186Z,17.60
2024-01-10T02:04:45.875Z,17.20
2024-01-10T02:04:51.178Z,17.40
2024-01-10T02:04:55.790Z,16.80
2024-01-10T02:05:30.226Z,16.80
2024-01-10T02:05:36.899Z,16.80
2024-01-10T02:05:42.351Z,17.50
2024-01-10T02:05:46.001Z,17.70
2024-01-10T02:05:51.301Z,17.80
2024-01-10T02:05:55.919Z,18.20
2024-01-10T02:06:30.081Z,17.60
2024-01-10T02:06:36.928Z,17.60
2024-01-10T02:06:42.253Z,17.80
2024-01-10T02:06:46.020Z,18.30
2024-01-10T02:06:51.288Z,17.80
2024-01-10T02:06:55.933Z,17.80
2024-01-10T02:07:30.144Z,17.70
2024-01-10T02:07:37.016Z,17.30
2024-01-10T02:07:42.444Z,17.40
2024-01-10T02:07:46.144Z,17.40
2024-01-10T02:07:51.309Z,17.10
2024-01-10T02:07:55.995Z,16.90
2024-01-10T02:08:30.182Z,18.20
2024-01-10T02:08:37.115Z,17.90
2024-01-10T02:08:42.459Z,17.30
2024-01-10T02:08:46.253Z,16.90
2024-01-10T02:08:51.317Z,16.50